sensor_id;sensor_type;location;lat;lon;timestamp;P1;durP1;ratioP1;P2;durP2;ratioP2
3541;SDS011;1785;47.388;8.538;2023-05-21T00:00:10;24.83;;;22.13;;
3541;SDS011;1785;47.388;8.538;2023-05-21T00:02:36;22.43;;;20.17;;
3541;SDS011;1785;47.388;8.538;2023-05-21T00:05:04;22.47;;;20.23;;
3541;SDS011;1785;47.388;8.538;2023-05-21T00:07:34;24.67;;;22.17;;
3541;SDS011;1785;47.388;8.538;2023-05-21T00:10:00;23.67;;;20.77;;
3541;SDS011;1785;47.388;8.538;2023-05-21T00:12:26;21.90;;;19.70;;
3541;SDS011;1785;47.388;8.538;2023-05-21T00:14:52;23.67;;;21.27;;
3541;SDS011;1785;47.388;8.538;2023-05-21T00:17:18;25.60;;;22.27;;
3541;SDS011;1785;47.388;8.538;2023-05-21T00:19:44;23.63;;;21.20;;
3541;SDS011;1785;47.388;8.538;2023-05-21T00:22:11;25.33;;;22.70;;
3541;SDS011;1785;47.388;8.538;2023-05-21T00:24:38;24.17;;;21.57;;
3541;SDS011;1785;47.388;8.538;2023-05-21T00:27:04;22.00;;;19.70;;
3541;SDS011;1785;47.388;8.538;2023-05-21T00:29:30;26.03;;;23.17;;
3541;SDS011;1785;47.388;8.538;2023-05-21T00:31:56;26.37;;;23.63;;
3541;SDS011;1785;47.388;8.538;2023-05-21T00:34:22;27.80;;;24.03;;
3541;SDS011;1785;47.388;8.538;2023-05-21T00:36:48;24.60;;;22.30;;
3541;SDS011;1785;47.388;8.538;2023-05-21T00:39:15;24.83;;;22.40;;
3541;SDS011;1785;47.388;8.538;2023-05-21T00:41:41;29.90;;;22.33;;
3541;SDS011;1785;47.388;8.538;2023-05-21T00:44:07;25.13;;;22.70;;
3541;SDS011;1785;47.388;8.538;2023-05-21T00:46:33;22.73;;;20.63;;
3541;SDS011;1785;47.388;8.538;2023-05-21T00:49:00;23.83;;;21.30;;
3541;SDS011;1785;47.388;8.538;2023-05-21T00:51:26;23.53;;;21.27;;
3541;SDS011;1785;47.388;8.538;2023-05-21T00:53:54;23.43;;;20.90;;
3541;SDS011;1785;47.388;8.538;2023-05-21T00:56:22;24.63;;;20.77;;
3541;SDS011;1785;47.388;8.538;2023-05-21T00:58:51;22.53;;;20.03;;
3541;SDS011;1785;47.388;8.538;2023-05-21T01:01:18;25.73;;;21.93;;
3541;SDS011;1785;47.388;8.538;2023-05-21T01:03:44;22.43;;;20.33;;
3541;SDS011;1785;47.388;8.538;2023-05-21T01:06:12;22.30;;;20.20;;
3541;SDS011;1785;47.388;8.538;2023-05-21T01:08:38;23.57;;;21.30;;
3541;SDS011;1785;47.388;8.538;2023-05-21T01:11:06;23.17;;;20.83;;
3541;SDS011;1785;47.388;8.538;2023-05-21T01:13:34;22.67;;;20.47;;
3541;SDS011;1785;47.388;8.538;2023-05-21T01:16:03;23.97;;;21.63;;
3541;SDS011;1785;47.388;8.538;2023-05-21T01:18:30;23.27;;;20.90;;
3541;SDS011;1785;47.388;8.538;2023-05-21T01:20:59;22.80;;;20.60;;
3541;SDS011;1785;47.388;8.538;2023-05-21T01:23:26;20.97;;;18.93;;
3541;SDS011;1785;47.388;8.538;2023-05-21T01:25:53;20.60;;;18.73;;
3541;SDS011;1785;47.388;8.538;2023-05-21T01:28:19;23.70;;;21.30;;
3541;SDS011;1785;47.388;8.538;2023-05-21T01:30:45;21.17;;;19.03;;
3541;SDS011;1785;47.388;8.538;2023-05-21T01:33:14;22.00;;;20.03;;
3541;SDS011;1785;47.388;8.538;2023-05-21T01:35:46;23.87;;;21.67;;
3541;SDS011;1785;47.388;8.538;2023-05-21T01:38:16;23.83;;;21.33;;
3541;SDS011;1785;47.388;8.538;2023-05-21T01:40:49;24.50;;;21.90;;
3541;SDS011;1785;47.388;8.538;2023-05-21T01:43:18;25.30;;;22.90;;
3541;SDS011;1785;47.388;8.538;2023-05-21T01:45:45;24.43;;;21.50;;
3541;SDS011;1785;47.388;8.538;2023-05-21T01:48:12;24.53;;;21.97;;
3541;SDS011;1785;47.388;8.538;2023-05-21T01:50:39;23.10;;;20.80;;
3541;SDS011;1785;47.388;8.538;2023-05-21T01:53:07;23.60;;;21.23;;
3541;SDS011;1785;47.388;8.538;2023-05-21T01:55:34;24.87;;;22.53;;
3541;SDS011;1785;47.388;8.538;2023-05-21T01:58:04;23.63;;;21.20;;
3541;SDS011;1785;47.388;8.538;2023-05-21T02:00:30;23.47;;;21.43;;
3541;SDS011;1785;47.388;8.538;2023-05-21T02:02:56;23.87;;;20.53;;
3541;SDS011;1785;47.388;8.538;2023-05-21T02:05:22;24.07;;;21.47;;
3541;SDS011;1785;47.388;8.538;2023-05-21T02:07:49;22.10;;;20.00;;
3541;SDS011;1785;47.388;8.538;2023-05-21T02:10:16;22.60;;;20.30;;
3541;SDS011;1785;47.388;8.538;2023-05-21T02:12:43;24.07;;;21.83;;
3541;SDS011;1785;47.388;8.538;2023-05-21T02:15:10;23.40;;;20.90;;
3541;SDS011;1785;47.388;8.538;2023-05-21T02:17:38;23.80;;;21.40;;
3541;SDS011;1785;47.388;8.538;2023-05-21T02:20:05;22.77;;;20.57;;
3541;SDS011;1785;47.388;8.538;2023-05-21T02:22:35;26.73;;;23.80;;
3541;SDS011;1785;47.388;8.538;2023-05-21T02:25:02;27.37;;;24.47;;
3541;SDS011;1785;47.388;8.538;2023-05-21T02:27:29;22.83;;;20.47;;
3541;SDS011;1785;47.388;8.538;2023-05-21T02:29:56;24.13;;;20.80;;
3541;SDS011;1785;47.388;8.538;2023-05-21T02:32:23;24.30;;;21.90;;
3541;SDS011;1785;47.388;8.538;2023-05-21T02:34:49;23.93;;;21.53;;
3541;SDS011;1785;47.388;8.538;2023-05-21T02:37:15;23.60;;;21.40;;
3541;SDS011;1785;47.388;8.538;2023-05-21T02:39:42;23.40;;;21.10;;
3541;SDS011;1785;47.388;8.538;2023-05-21T02:42:08;23.13;;;20.30;;
3541;SDS011;1785;47.388;8.538;2023-05-21T02:44:35;23.07;;;21.07;;
3541;SDS011;1785;47.388;8.538;2023-05-21T02:47:01;22.70;;;20.20;;
3541;SDS011;1785;47.388;8.538;2023-05-21T02:49:27;22.90;;;20.53;;
3541;SDS011;1785;47.388;8.538;2023-05-21T02:51:53;22.48;;;20.08;;
3541;SDS011;1785;47.388;8.538;2023-05-21T02:54:19;24.47;;;21.90;;
3541;SDS011;1785;47.388;8.538;2023-05-21T02:56:45;23.50;;;20.17;;
3541;SDS011;1785;47.388;8.538;2023-05-21T02:59:11;21.90;;;19.80;;
3541;SDS011;1785;47.388;8.538;2023-05-21T03:01:38;24.70;;;20.27;;
3541;SDS011;1785;47.388;8.538;2023-05-21T03:04:05;21.63;;;19.63;;
3541;SDS011;1785;47.388;8.538;2023-05-21T03:06:32;22.43;;;20.33;;
3541;SDS011;1785;47.388;8.538;2023-05-21T03:08:58;22.80;;;20.40;;
3541;SDS011;1785;47.388;8.538;2023-05-21T03:11:24;23.27;;;20.77;;
3541;SDS011;1785;47.388;8.538;2023-05-21T03:13:50;23.17;;;20.13;;
3541;SDS011;1785;47.388;8.538;2023-05-21T03:16:16;20.50;;;18.60;;
3541;SDS011;1785;47.388;8.538;2023-05-21T03:18:42;23.07;;;20.57;;
3541;SDS011;1785;47.388;8.538;2023-05-21T03:21:09;21.97;;;19.77;;
3541;SDS011;1785;47.388;8.538;2023-05-21T03:23:38;22.43;;;20.33;;
3541;SDS011;1785;47.388;8.538;2023-05-21T03:26:05;21.77;;;19.77;;
3541;SDS011;1785;47.388;8.538;2023-05-21T03:28:31;24.43;;;21.67;;
3541;SDS011;1785;47.388;8.538;2023-05-21T03:30:57;22.73;;;20.33;;
3541;SDS011;1785;47.388;8.538;2023-05-21T03:33:24;20.83;;;18.83;;
3541;SDS011;1785;47.388;8.538;2023-05-21T03:35:50;21.60;;;19.43;;
3541;SDS011;1785;47.388;8.538;2023-05-21T03:38:16;21.57;;;19.40;;
3541;SDS011;1785;47.388;8.538;2023-05-21T03:40:42;22.27;;;20.10;;
3541;SDS011;1785;47.388;8.538;2023-05-21T03:43:08;24.53;;;22.03;;
3541;SDS011;1785;47.388;8.538;2023-05-21T03:45:35;23.07;;;20.70;;
3541;SDS011;1785;47.388;8.538;2023-05-21T03:48:01;23.83;;;20.10;;
3541;SDS011;1785;47.388;8.538;2023-05-21T03:50:27;22.03;;;19.93;;
3541;SDS011;1785;47.388;8.538;2023-05-21T03:52:53;23.53;;;21.23;;
3541;SDS011;1785;47.388;8.538;2023-05-21T03:55:19;23.90;;;20.40;;
3541;SDS011;1785;47.388;8.538;2023-05-21T03:57:46;22.00;;;19.90;;
3541;SDS011;1785;47.388;8.538;2023-05-21T04:00:12;23.10;;;20.70;;
3541;SDS011;1785;47.388;8.538;2023-05-21T04:02:39;24.33;;;21.93;;
3541;SDS011;1785;47.388;8.538;2023-05-21T04:05:05;23.33;;;21.00;;
3541;SDS011;1785;47.388;8.538;2023-05-21T04:07:31;24.87;;;22.27;;
3541;SDS011;1785;47.388;8.538;2023-05-21T04:09:58;23.03;;;20.77;;
3541;SDS011;1785;47.388;8.538;2023-05-21T04:12:24;23.17;;;20.70;;
3541;SDS011;1785;47.388;8.538;2023-05-21T04:14:51;22.80;;;20.53;;
3541;SDS011;1785;47.388;8.538;2023-05-21T04:17:17;25.03;;;22.57;;
3541;SDS011;1785;47.388;8.538;2023-05-21T04:19:44;23.03;;;20.47;;
3541;SDS011;1785;47.388;8.538;2023-05-21T04:22:10;22.27;;;20.23;;
3541;SDS011;1785;47.388;8.538;2023-05-21T04:24:36;23.70;;;21.20;;
3541;SDS011;1785;47.388;8.538;2023-05-21T04:27:03;22.90;;;20.50;;
3541;SDS011;1785;47.388;8.538;2023-05-21T04:29:30;25.03;;;22.53;;
3541;SDS011;1785;47.388;8.538;2023-05-21T04:31:57;25.63;;;23.30;;
3541;SDS011;1785;47.388;8.538;2023-05-21T04:34:23;24.20;;;21.63;;
3541;SDS011;1785;47.388;8.538;2023-05-21T04:36:49;24.93;;;22.10;;
3541;SDS011;1785;47.388;8.538;2023-05-21T04:39:15;24.10;;;21.53;;
3541;SDS011;1785;47.388;8.538;2023-05-21T04:41:42;24.77;;;22.33;;
3541;SDS011;1785;47.388;8.538;2023-05-21T04:44:08;25.37;;;22.70;;
3541;SDS011;1785;47.388;8.538;2023-05-21T04:46:34;24.03;;;21.77;;
3541;SDS011;1785;47.388;8.538;2023-05-21T04:49:01;25.70;;;23.00;;
3541;SDS011;1785;47.388;8.538;2023-05-21T04:51:27;24.73;;;21.37;;
3541;SDS011;1785;47.388;8.538;2023-05-21T04:53:53;25.97;;;23.40;;
3541;SDS011;1785;47.388;8.538;2023-05-21T04:56:20;24.13;;;21.73;;
3541;SDS011;1785;47.388;8.538;2023-05-21T04:58:46;24.77;;;22.37;;
3541;SDS011;1785;47.388;8.538;2023-05-21T05:01:13;26.10;;;23.60;;
3541;SDS011;1785;47.388;8.538;2023-05-21T05:03:39;25.23;;;22.77;;
3541;SDS011;1785;47.388;8.538;2023-05-21T05:06:06;25.07;;;22.60;;
3541;SDS011;1785;47.388;8.538;2023-05-21T05:08:32;24.60;;;22.20;;
3541;SDS011;1785;47.388;8.538;2023-05-21T05:10:58;24.60;;;22.20;;
3541;SDS011;1785;47.388;8.538;2023-05-21T05:13:24;25.00;;;22.60;;
3541;SDS011;1785;47.388;8.538;2023-05-21T05:15:51;26.77;;;23.93;;
3541;SDS011;1785;47.388;8.538;2023-05-21T05:18:18;28.07;;;25.30;;
3541;SDS011;1785;47.388;8.538;2023-05-21T05:20:44;25.47;;;22.77;;
3541;SDS011;1785;47.388;8.538;2023-05-21T05:23:11;24.98;;;21.23;;
3541;SDS011;1785;47.388;8.538;2023-05-21T05:25:37;26.33;;;23.60;;
3541;SDS011;1785;47.388;8.538;2023-05-21T05:28:03;25.03;;;22.47;;
3541;SDS011;1785;47.388;8.538;2023-05-21T05:30:29;26.20;;;23.40;;
3541;SDS011;1785;47.388;8.538;2023-05-21T05:32:55;26.27;;;23.77;;
3541;SDS011;1785;47.388;8.538;2023-05-21T05:35:21;25.10;;;22.47;;
3541;SDS011;1785;47.388;8.538;2023-05-21T05:37:47;27.73;;;24.73;;
3541;SDS011;1785;47.388;8.538;2023-05-21T05:40:14;26.53;;;23.93;;
3541;SDS011;1785;47.388;8.538;2023-05-21T05:42:40;27.37;;;24.60;;
3541;SDS011;1785;47.388;8.538;2023-05-21T05:45:07;26.93;;;24.10;;
3541;SDS011;1785;47.388;8.538;2023-05-21T05:47:34;26.97;;;24.17;;
3541;SDS011;1785;47.388;8.538;2023-05-21T05:50:00;27.27;;;23.80;;
3541;SDS011;1785;47.388;8.538;2023-05-21T05:52:26;27.03;;;24.23;;
3541;SDS011;1785;47.388;8.538;2023-05-21T05:54:52;28.13;;;25.10;;
3541;SDS011;1785;47.388;8.538;2023-05-21T05:57:19;27.57;;;24.13;;
3541;SDS011;1785;47.388;8.538;2023-05-21T05:59:45;26.60;;;24.07;;
3541;SDS011;1785;47.388;8.538;2023-05-21T06:02:11;26.67;;;23.93;;
3541;SDS011;1785;47.388;8.538;2023-05-21T06:04:37;26.87;;;24.10;;
3541;SDS011;1785;47.388;8.538;2023-05-21T06:07:03;26.43;;;23.73;;
3541;SDS011;1785;47.388;8.538;2023-05-21T06:09:29;25.70;;;23.00;;
3541;SDS011;1785;47.388;8.538;2023-05-21T06:11:55;25.43;;;23.00;;
3541;SDS011;1785;47.388;8.538;2023-05-21T06:14:22;27.03;;;24.43;;
3541;SDS011;1785;47.388;8.538;2023-05-21T06:16:48;26.40;;;23.90;;
3541;SDS011;1785;47.388;8.538;2023-05-21T06:19:14;26.70;;;23.80;;
3541;SDS011;1785;47.388;8.538;2023-05-21T06:21:40;27.30;;;24.70;;
3541;SDS011;1785;47.388;8.538;2023-05-21T06:24:06;28.20;;;25.43;;
3541;SDS011;1785;47.388;8.538;2023-05-21T06:26:32;34.10;;;26.47;;
3541;SDS011;1785;47.388;8.538;2023-05-21T06:28:58;27.90;;;25.00;;
3541;SDS011;1785;47.388;8.538;2023-05-21T06:31:25;32.17;;;28.07;;
3541;SDS011;1785;47.388;8.538;2023-05-21T06:33:51;31.73;;;27.37;;
3541;SDS011;1785;47.388;8.538;2023-05-21T06:36:17;33.23;;;27.13;;
3541;SDS011;1785;47.388;8.538;2023-05-21T06:38:43;29.27;;;26.40;;
3541;SDS011;1785;47.388;8.538;2023-05-21T06:41:11;30.13;;;26.92;;
3541;SDS011;1785;47.388;8.538;2023-05-21T06:43:37;27.60;;;24.80;;
3541;SDS011;1785;47.388;8.538;2023-05-21T06:46:03;33.23;;;28.03;;
3541;SDS011;1785;47.388;8.538;2023-05-21T06:48:29;29.50;;;26.60;;
3541;SDS011;1785;47.388;8.538;2023-05-21T06:50:56;30.17;;;26.90;;
3541;SDS011;1785;47.388;8.538;2023-05-21T06:53:22;29.47;;;26.47;;
3541;SDS011;1785;47.388;8.538;2023-05-21T06:55:48;28.25;;;25.20;;
3541;SDS011;1785;47.388;8.538;2023-05-21T06:58:17;28.00;;;25.07;;
3541;SDS011;1785;47.388;8.538;2023-05-21T07:00:43;28.83;;;25.83;;
3541;SDS011;1785;47.388;8.538;2023-05-21T07:03:09;27.70;;;24.90;;
3541;SDS011;1785;47.388;8.538;2023-05-21T07:05:36;27.23;;;24.50;;
3541;SDS011;1785;47.388;8.538;2023-05-21T07:08:02;29.77;;;26.53;;
3541;SDS011;1785;47.388;8.538;2023-05-21T07:10:28;27.10;;;24.20;;
3541;SDS011;1785;47.388;8.538;2023-05-21T07:12:54;27.90;;;24.97;;
3541;SDS011;1785;47.388;8.538;2023-05-21T07:15:20;26.43;;;23.73;;
3541;SDS011;1785;47.388;8.538;2023-05-21T07:17:46;28.67;;;25.93;;
3541;SDS011;1785;47.388;8.538;2023-05-21T07:20:12;28.03;;;25.23;;
3541;SDS011;1785;47.388;8.538;2023-05-21T07:22:39;25.70;;;23.10;;
3541;SDS011;1785;47.388;8.538;2023-05-21T07:25:07;27.27;;;24.47;;
3541;SDS011;1785;47.388;8.538;2023-05-21T07:27:34;27.67;;;24.87;;
3541;SDS011;1785;47.388;8.538;2023-05-21T07:30:00;27.17;;;24.40;;
3541;SDS011;1785;47.388;8.538;2023-05-21T07:32:26;27.77;;;24.90;;
3541;SDS011;1785;47.388;8.538;2023-05-21T07:34:53;30.53;;;26.07;;
3541;SDS011;1785;47.388;8.538;2023-05-21T07:37:19;26.00;;;23.27;;
3541;SDS011;1785;47.388;8.538;2023-05-21T07:39:46;26.33;;;23.50;;
3541;SDS011;1785;47.388;8.538;2023-05-21T07:42:12;25.50;;;22.80;;
3541;SDS011;1785;47.388;8.538;2023-05-21T07:44:38;27.27;;;24.50;;
3541;SDS011;1785;47.388;8.538;2023-05-21T07:47:04;28.57;;;25.57;;
3541;SDS011;1785;47.388;8.538;2023-05-21T07:49:30;26.63;;;22.83;;
3541;SDS011;1785;47.388;8.538;2023-05-21T07:51:56;26.03;;;23.30;;
3541;SDS011;1785;47.388;8.538;2023-05-21T07:54:22;24.67;;;22.27;;
3541;SDS011;1785;47.388;8.538;2023-05-21T07:56:49;24.20;;;21.90;;
3541;SDS011;1785;47.388;8.538;2023-05-21T07:59:16;23.60;;;21.20;;
3541;SDS011;1785;47.388;8.538;2023-05-21T08:01:42;24.90;;;21.47;;
3541;SDS011;1785;47.388;8.538;2023-05-21T08:04:08;24.63;;;22.23;;
3541;SDS011;1785;47.388;8.538;2023-05-21T08:06:34;23.90;;;21.67;;
3541;SDS011;1785;47.388;8.538;2023-05-21T08:09:01;25.10;;;22.47;;
3541;SDS011;1785;47.388;8.538;2023-05-21T08:11:27;22.60;;;20.40;;
3541;SDS011;1785;47.388;8.538;2023-05-21T08:13:54;24.30;;;21.73;;
3541;SDS011;1785;47.388;8.538;2023-05-21T08:16:20;24.67;;;22.10;;
3541;SDS011;1785;47.388;8.538;2023-05-21T08:18:47;25.50;;;22.97;;
3541;SDS011;1785;47.388;8.538;2023-05-21T08:21:14;23.67;;;21.13;;
3541;SDS011;1785;47.388;8.538;2023-05-21T08:23:41;23.60;;;21.10;;
3541;SDS011;1785;47.388;8.538;2023-05-21T08:26:07;24.30;;;21.90;;
3541;SDS011;1785;47.388;8.538;2023-05-21T08:28:34;22.43;;;20.23;;
3541;SDS011;1785;47.388;8.538;2023-05-21T08:31:03;23.07;;;20.53;;
3541;SDS011;1785;47.388;8.538;2023-05-21T08:33:29;22.97;;;20.77;;
3541;SDS011;1785;47.388;8.538;2023-05-21T08:35:55;23.10;;;20.60;;
3541;SDS011;1785;47.388;8.538;2023-05-21T08:38:21;24.00;;;21.50;;
3541;SDS011;1785;47.388;8.538;2023-05-21T08:40:47;22.33;;;20.03;;
3541;SDS011;1785;47.388;8.538;2023-05-21T08:43:16;24.00;;;21.57;;
3541;SDS011;1785;47.388;8.538;2023-05-21T08:45:44;23.17;;;20.83;;
3541;SDS011;1785;47.388;8.538;2023-05-21T08:48:12;21.57;;;19.47;;
3541;SDS011;1785;47.388;8.538;2023-05-21T08:50:41;21.77;;;19.57;;
3541;SDS011;1785;47.388;8.538;2023-05-21T08:53:07;22.93;;;20.67;;
3541;SDS011;1785;47.388;8.538;2023-05-21T08:55:34;21.97;;;18.93;;
3541;SDS011;1785;47.388;8.538;2023-05-21T08:58:03;22.30;;;20.10;;
3541;SDS011;1785;47.388;8.538;2023-05-21T09:00:29;20.73;;;18.53;;
3541;SDS011;1785;47.388;8.538;2023-05-21T09:02:55;20.57;;;18.47;;
3541;SDS011;1785;47.388;8.538;2023-05-21T09:05:25;20.37;;;18.37;;
3541;SDS011;1785;47.388;8.538;2023-05-21T09:07:54;21.20;;;18.90;;
3541;SDS011;1785;47.388;8.538;2023-05-21T09:10:26;21.03;;;19.00;;
3541;SDS011;1785;47.388;8.538;2023-05-21T09:12:56;18.27;;;16.53;;
3541;SDS011;1785;47.388;8.538;2023-05-21T09:15:22;19.57;;;17.57;;
3541;SDS011;1785;47.388;8.538;2023-05-21T09:17:49;19.33;;;17.33;;
3541;SDS011;1785;47.388;8.538;2023-05-21T09:20:16;19.20;;;17.13;;
3541;SDS011;1785;47.388;8.538;2023-05-21T09:22:43;20.27;;;17.90;;
3541;SDS011;1785;47.388;8.538;2023-05-21T09:25:11;16.63;;;14.93;;
3541;SDS011;1785;47.388;8.538;2023-05-21T09:27:38;18.43;;;16.73;;
3541;SDS011;1785;47.388;8.538;2023-05-21T09:30:06;18.50;;;16.53;;
3541;SDS011;1785;47.388;8.538;2023-05-21T09:32:35;19.30;;;16.60;;
3541;SDS011;1785;47.388;8.538;2023-05-21T09:35:07;18.40;;;16.60;;
3541;SDS011;1785;47.388;8.538;2023-05-21T09:37:38;18.33;;;16.13;;
3541;SDS011;1785;47.388;8.538;2023-05-21T09:40:12;19.63;;;17.47;;
3541;SDS011;1785;47.388;8.538;2023-05-21T09:42:39;17.53;;;15.83;;
3541;SDS011;1785;47.388;8.538;2023-05-21T09:45:06;19.37;;;17.57;;
3541;SDS011;1785;47.388;8.538;2023-05-21T09:47:38;18.10;;;16.30;;
3541;SDS011;1785;47.388;8.538;2023-05-21T09:50:07;19.73;;;17.13;;
3541;SDS011;1785;47.388;8.538;2023-05-21T09:52:34;17.50;;;15.37;;
3541;SDS011;1785;47.388;8.538;2023-05-21T09:55:01;19.20;;;17.10;;
3541;SDS011;1785;47.388;8.538;2023-05-21T09:57:28;17.97;;;16.17;;
3541;SDS011;1785;47.388;8.538;2023-05-21T09:59:55;14.57;;;13.27;;
3541;SDS011;1785;47.388;8.538;2023-05-21T10:02:21;19.83;;;17.73;;
3541;SDS011;1785;47.388;8.538;2023-05-21T10:04:49;15.33;;;13.93;;
3541;SDS011;1785;47.388;8.538;2023-05-21T10:07:17;18.07;;;16.17;;
3541;SDS011;1785;47.388;8.538;2023-05-21T10:09:46;16.27;;;14.67;;
3541;SDS011;1785;47.388;8.538;2023-05-21T10:12:13;16.40;;;14.50;;
3541;SDS011;1785;47.388;8.538;2023-05-21T10:14:42;19.35;;;14.88;;
3541;SDS011;1785;47.388;8.538;2023-05-21T10:17:10;16.67;;;14.47;;
3541;SDS011;1785;47.388;8.538;2023-05-21T10:19:38;17.13;;;15.43;;
3541;SDS011;1785;47.388;8.538;2023-05-21T10:22:05;17.60;;;15.80;;
3541;SDS011;1785;47.388;8.538;2023-05-21T10:24:32;17.63;;;15.90;;
3541;SDS011;1785;47.388;8.538;2023-05-21T10:27:00;21.20;;;16.67;;
3541;SDS011;1785;47.388;8.538;2023-05-21T10:29:27;17.30;;;15.30;;
3541;SDS011;1785;47.388;8.538;2023-05-21T10:31:56;16.93;;;15.13;;
3541;SDS011;1785;47.388;8.538;2023-05-21T10:34:25;15.80;;;14.30;;
3541;SDS011;1785;47.388;8.538;2023-05-21T10:36:53;17.27;;;15.57;;
3541;SDS011;1785;47.388;8.538;2023-05-21T10:39:22;15.80;;;14.40;;
3541;SDS011;1785;47.388;8.538;2023-05-21T10:41:50;16.10;;;14.53;;
3541;SDS011;1785;47.388;8.538;2023-05-21T10:44:25;14.57;;;13.27;;
3541;SDS011;1785;47.388;8.538;2023-05-21T10:47:09;19.50;;;14.70;;
3541;SDS011;1785;47.388;8.538;2023-05-21T10:49:53;14.03;;;12.63;;
3541;SDS011;1785;47.388;8.538;2023-05-21T10:52:34;14.80;;;12.90;;
3541;SDS011;1785;47.388;8.538;2023-05-21T10:55:22;13.53;;;12.13;;
3541;SDS011;1785;47.388;8.538;2023-05-21T10:58:18;11.30;;;10.20;;
3541;SDS011;1785;47.388;8.538;2023-05-21T11:00:55;11.90;;;10.80;;
3541;SDS011;1785;47.388;8.538;2023-05-21T11:03:24;10.93;;;9.93;;
3541;SDS011;1785;47.388;8.538;2023-05-21T11:05:51;12.30;;;11.00;;
3541;SDS011;1785;47.388;8.538;2023-05-21T11:08:22;11.87;;;10.67;;
3541;SDS011;1785;47.388;8.538;2023-05-21T11:10:53;11.27;;;10.27;;
3541;SDS011;1785;47.388;8.538;2023-05-21T11:13:19;11.40;;;10.30;;
3541;SDS011;1785;47.388;8.538;2023-05-21T11:16:02;11.33;;;10.10;;
3541;SDS011;1785;47.388;8.538;2023-05-21T11:21:22;12.23;;;11.13;;
3541;SDS011;1785;47.388;8.538;2023-05-21T11:23:54;12.17;;;11.03;;
3541;SDS011;1785;47.388;8.538;2023-05-21T11:26:21;11.77;;;10.73;;
3541;SDS011;1785;47.388;8.538;2023-05-21T11:28:49;13.23;;;11.93;;
3541;SDS011;1785;47.388;8.538;2023-05-21T11:31:21;11.83;;;10.73;;
3541;SDS011;1785;47.388;8.538;2023-05-21T11:34:02;12.02;;;10.73;;
3541;SDS011;1785;47.388;8.538;2023-05-21T11:36:33;10.80;;;9.80;;
3541;SDS011;1785;47.388;8.538;2023-05-21T11:39:07;11.80;;;10.60;;
3541;SDS011;1785;47.388;8.538;2023-05-21T11:41:55;11.07;;;9.93;;
3541;SDS011;1785;47.388;8.538;2023-05-21T11:44:36;11.00;;;8.30;;
3541;SDS011;1785;47.388;8.538;2023-05-21T11:47:03;11.03;;;9.97;;
3541;SDS011;1785;47.388;8.538;2023-05-21T11:49:30;9.73;;;8.80;;
3541;SDS011;1785;47.388;8.538;2023-05-21T11:51:56;9.70;;;8.80;;
3541;SDS011;1785;47.388;8.538;2023-05-21T11:54:24;10.13;;;9.33;;
3541;SDS011;1785;47.388;8.538;2023-05-21T11:56:50;9.73;;;8.83;;
3541;SDS011;1785;47.388;8.538;2023-05-21T11:59:18;10.40;;;9.40;;
3541;SDS011;1785;47.388;8.538;2023-05-21T12:01:45;11.30;;;10.30;;
3541;SDS011;1785;47.388;8.538;2023-05-21T12:04:11;14.20;;;12.77;;
3541;SDS011;1785;47.388;8.538;2023-05-21T12:06:38;11.60;;;10.40;;
3541;SDS011;1785;47.388;8.538;2023-05-21T12:09:07;12.40;;;10.93;;
3541;SDS011;1785;47.388;8.538;2023-05-21T12:11:34;10.43;;;9.53;;
3541;SDS011;1785;47.388;8.538;2023-05-21T12:14:02;11.20;;;10.10;;
3541;SDS011;1785;47.388;8.538;2023-05-21T12:16:30;10.23;;;9.23;;
3541;SDS011;1785;47.388;8.538;2023-05-21T12:18:57;9.67;;;8.70;;
3541;SDS011;1785;47.388;8.538;2023-05-21T12:21:24;9.27;;;8.47;;
3541;SDS011;1785;47.388;8.538;2023-05-21T12:23:53;8.47;;;7.77;;
3541;SDS011;1785;47.388;8.538;2023-05-21T12:26:19;9.20;;;8.30;;
3541;SDS011;1785;47.388;8.538;2023-05-21T12:28:46;8.40;;;7.67;;
3541;SDS011;1785;47.388;8.538;2023-05-21T12:31:13;10.30;;;9.20;;
3541;SDS011;1785;47.388;8.538;2023-05-21T12:33:39;11.23;;;10.13;;
3541;SDS011;1785;47.388;8.538;2023-05-21T12:36:09;11.13;;;9.93;;
3541;SDS011;1785;47.388;8.538;2023-05-21T12:38:35;11.90;;;10.80;;
3541;SDS011;1785;47.388;8.538;2023-05-21T12:41:03;13.63;;;12.13;;
3541;SDS011;1785;47.388;8.538;2023-05-21T12:43:30;11.10;;;10.00;;
3541;SDS011;1785;47.388;8.538;2023-05-21T12:45:56;12.03;;;10.80;;
3541;SDS011;1785;47.388;8.538;2023-05-21T12:48:22;14.03;;;9.73;;
3541;SDS011;1785;47.388;8.538;2023-05-21T12:50:49;9.37;;;8.37;;
3541;SDS011;1785;47.388;8.538;2023-05-21T12:53:16;11.47;;;10.47;;
3541;SDS011;1785;47.388;8.538;2023-05-21T12:55:43;10.40;;;9.40;;
3541;SDS011;1785;47.388;8.538;2023-05-21T12:58:11;9.73;;;8.83;;
3541;SDS011;1785;47.388;8.538;2023-05-21T13:00:40;10.67;;;9.57;;
3541;SDS011;1785;47.388;8.538;2023-05-21T13:03:07;10.07;;;9.07;;
3541;SDS011;1785;47.388;8.538;2023-05-21T13:05:33;10.00;;;9.10;;
3541;SDS011;1785;47.388;8.538;2023-05-21T13:07:59;8.90;;;8.10;;
3541;SDS011;1785;47.388;8.538;2023-05-21T13:10:26;8.77;;;7.97;;
3541;SDS011;1785;47.388;8.538;2023-05-21T13:12:52;9.00;;;8.20;;
3541;SDS011;1785;47.388;8.538;2023-05-21T13:17:49;7.60;;;6.83;;
3541;SDS011;1785;47.388;8.538;2023-05-21T13:20:17;8.50;;;7.17;;
3541;SDS011;1785;47.388;8.538;2023-05-21T13:22:45;9.23;;;8.43;;
3541;SDS011;1785;47.388;8.538;2023-05-21T13:25:12;9.90;;;8.40;;
3541;SDS011;1785;47.388;8.538;2023-05-21T13:27:40;8.53;;;7.83;;
3541;SDS011;1785;47.388;8.538;2023-05-21T13:30:06;6.57;;;5.97;;
3541;SDS011;1785;47.388;8.538;2023-05-21T13:32:35;6.30;;;5.80;;
3541;SDS011;1785;47.388;8.538;2023-05-21T13:35:02;6.80;;;6.20;;
3541;SDS011;1785;47.388;8.538;2023-05-21T13:37:29;5.73;;;5.30;;
3541;SDS011;1785;47.388;8.538;2023-05-21T13:39:55;4.93;;;4.43;;
3541;SDS011;1785;47.388;8.538;2023-05-21T13:42:22;5.37;;;3.70;;
3541;SDS011;1785;47.388;8.538;2023-05-21T13:44:48;4.20;;;3.90;;
3541;SDS011;1785;47.388;8.538;2023-05-21T13:47:14;5.37;;;3.90;;
3541;SDS011;1785;47.388;8.538;2023-05-21T13:49:40;4.47;;;4.17;;
3541;SDS011;1785;47.388;8.538;2023-05-21T13:52:07;4.67;;;4.10;;
3541;SDS011;1785;47.388;8.538;2023-05-21T13:54:34;3.57;;;3.33;;
3541;SDS011;1785;47.388;8.538;2023-05-21T13:57:00;7.57;;;4.70;;
3541;SDS011;1785;47.388;8.538;2023-05-21T13:59:28;5.10;;;3.80;;
3541;SDS011;1785;47.388;8.538;2023-05-21T14:01:54;5.27;;;4.87;;
3541;SDS011;1785;47.388;8.538;2023-05-21T14:04:22;5.73;;;5.20;;
3541;SDS011;1785;47.388;8.538;2023-05-21T14:06:48;7.57;;;6.83;;
3541;SDS011;1785;47.388;8.538;2023-05-21T14:09:15;5.40;;;4.83;;
3541;SDS011;1785;47.388;8.538;2023-05-21T14:11:41;4.80;;;4.40;;
3541;SDS011;1785;47.388;8.538;2023-05-21T14:14:07;5.27;;;4.77;;
3541;SDS011;1785;47.388;8.538;2023-05-21T14:16:34;5.07;;;4.30;;
3541;SDS011;1785;47.388;8.538;2023-05-21T14:19:00;5.50;;;5.00;;
3541;SDS011;1785;47.388;8.538;2023-05-21T14:21:26;4.70;;;4.30;;
3541;SDS011;1785;47.388;8.538;2023-05-21T14:23:53;4.90;;;4.50;;
3541;SDS011;1785;47.388;8.538;2023-05-21T14:26:20;4.10;;;3.80;;
3541;SDS011;1785;47.388;8.538;2023-05-21T14:28:46;4.93;;;3.97;;
3541;SDS011;1785;47.388;8.538;2023-05-21T14:31:12;5.07;;;4.63;;
3541;SDS011;1785;47.388;8.538;2023-05-21T14:33:39;5.50;;;5.10;;
3541;SDS011;1785;47.388;8.538;2023-05-21T14:36:05;3.73;;;3.07;;
3541;SDS011;1785;47.388;8.538;2023-05-21T14:38:31;3.90;;;3.60;;
3541;SDS011;1785;47.388;8.538;2023-05-21T14:40:57;3.90;;;3.60;;
3541;SDS011;1785;47.388;8.538;2023-05-21T14:43:24;3.90;;;3.60;;
3541;SDS011;1785;47.388;8.538;2023-05-21T14:45:50;4.37;;;4.00;;
3541;SDS011;1785;47.388;8.538;2023-05-21T14:48:17;3.97;;;3.67;;
3541;SDS011;1785;47.388;8.538;2023-05-21T14:50:47;4.40;;;3.93;;
3541;SDS011;1785;47.388;8.538;2023-05-21T14:53:14;3.90;;;3.47;;
3541;SDS011;1785;47.388;8.538;2023-05-21T14:55:40;3.53;;;3.23;;
3541;SDS011;1785;47.388;8.538;2023-05-21T14:58:06;3.63;;;3.33;;